Time,TemperatureF,DewpointF,PressureIn,WindDirection,WindDirectionDegrees,WindSpeedMPH,WindSpeedGustMPH,Humidity,HourlyPrecipIn,Conditions,Clouds,dailyrainin,SolarRadiationWatts/m^2,SoftwareType,DateUTC
2013-01-12 00:03:00,16.4,11.0,30.35,North,360,11.5,11.5,79,0.00,CLR,,0.00,0.0,WeatherDisplay:10.37,2013-01-12 08:03:00,
2013-01-12 00:08:00,16.1,10.7,30.35,North,360,12.0,12.0,79,0.00,CLR,,0.00,0.0,WeatherDisplay:10.37,2013-01-12 08:08:00,
2013-01-12 00:13:00,15.9,10.5,30.35,North,360,11.5,11.5,79,0.00,CLR,,0.00,0.0,WeatherDisplay:10.37,2013-01-12 08:13:00,
2013-01-12 00:18:00,15.7,10.3,30.35,North,360,11.5,11.5,79,0.00,CLR,,0.00,0.0,WeatherDisplay:10.37,2013-01-12 08:18:00,
2013-01-12 00:23:00,15.5,10.1,30.35,North,360,11.5,11.5,79,0.00,CLR,,0.00,0.0,WeatherDisplay:10.37,2013-01-12 08:23:00,
2013-01-12 00:28:00,15.3,10.0,30.35,North,360,11.5,11.5,79,0.00,CLR,,0.00,0.0,WeatherDisplay:10.37,2013-01-12 08:28:00,
2013-01-12 00:33:00,15.2,9.9,30.35,North,360,11.5,11.5,79,0.00,CLR,,0.00,0.0,WeatherDisplay:10.37,2013-01-12 08:33:00,
2013-01-12 00:38:00,15.1,10.0,30.35,North,360,12.7,12.7,80,0.00,CLR,,0.00,0.0,WeatherDisplay:10.37,2013-01-12 08:38:00,
2013-01-12 00:43:00,15.0,9.9,30.35,North,360,15.0,15.0,80,0.00,CLR,,0.00,0.0,WeatherDisplay:10.37,2013-01-12 08:43:00,
2013-01-12 00:48:00,14.9,9.8,30.35,North,360,11.5,11.5,80,0.00,CLR,,0.00,0.0,WeatherDisplay:10.37,2013-01-12 08:48:00,
2013-01-12 00:53:00,14.9,9.6,30.34,North,360,11.5,11.5,79,0.00,CLR,,0.00,0.0,WeatherDisplay:10.37,2013-01-12 08:53:00,
2013-01-12 00:58:00,14.8,9.7,30.35,North,360,13.8,13.8,80,0.00,CLR,,0.00,0.0,WeatherDisplay:10.37,2013-01-12 08:58:00,
2013-01-12 01:03:00,14.6,9.3,30.35,North,360,11.5,11.5,79,0.00,CLR,,0.00,0.0,WeatherDisplay:10.37,2013-01-12 09:03:00,
2013-01-12 01:08:00,14.5,9.2,30.34,North,360,6.9,6.9,79,0.00,CLR,,0.00,0.0,WeatherDisplay:10.37,2013-01-12 09:08:00,
2013-01-12 01:13:00,14.4,9.1,30.35,North,360,11.5,11.5,79,0.00,CLR,,0.00,0.0,WeatherDisplay:10.37,2013-01-12 09:13:00,
2013-01-12 01:18:00,14.2,8.9,30.34,North,360,11.5,11.5,79,0.00,CLR,,0.00,0.0,WeatherDisplay:10.37,2013-01-12 09:18:00,
2013-01-12 01:23:00,14.0,8.7,30.35,North,360,10.4,10.4,79,0.00,CLR,,0.00,0.0,WeatherDisplay:10.37,2013-01-12 09:23:00,
2013-01-12 01:28:00,13.9,8.6,30.35,North,360,13.0,13.0,79,0.00,CLR,,0.00,0.0,WeatherDisplay:10.37,2013-01-12 09:28:00,
2013-01-12 01:33:00,13.8,8.5,30.36,North,360,13.8,13.8,79,0.00,CLR,,0.00,0.0,WeatherDisplay:10.37,2013-01-12 09:33:00,
2013-01-12 01:38:00,13.7,8.4,30.36,North,360,14.0,14.0,79,0.00,CLR,,0.00,0.0,WeatherDisplay:10.37,2013-01-12 09:38:00,
2013-01-12 01:43:00,13.7,8.4,30.35,North,360,11.5,11.5,79,0.00,CLR,,0.00,0.0,WeatherDisplay:10.37,2013-01-12 09:43:00,
2013-01-12 01:48:00,13.5,8.2,30.36,North,360,12.0,12.0,79,0.00,CLR,,0.00,0.0,WeatherDisplay:10.37,2013-01-12 09:48:00,
2013-01-12 01:53:00,13.4,8.1,30.36,North,360,12.7,12.7,79,0.00,CLR,,0.00,0.0,WeatherDisplay:10.37,2013-01-12 09:53:00,
2013-01-12 01:58:00,13.2,7.9,30.36,North,360,13.8,13.8,79,0.00,CLR,,0.00,0.0,WeatherDisplay:10.37,2013-01-12 09:58:00,
2013-01-12 02:03:00,13.0,7.7,30.36,North,360,15.0,15.0,79,0.00,CLR,,0.00,0.0,WeatherDisplay:10.37,2013-01-12 10:03:00,
2013-01-12 02:08:00,12.9,7.6,30.37,North,360,14.0,14.0,79,0.00,CLR,,0.00,0.0,WeatherDisplay:10.37,2013-01-12 10:08:00,
2013-01-12 02:13:00,12.7,7.4,30.36,North,360,11.5,11.5,79,0.00,CLR,,0.00,0.0,WeatherDisplay:10.37,2013-01-12 10:13:00,
2013-01-12 02:18:00,12.7,7.4,30.36,North,360,11.0,11.0,79,0.00,CLR,,0.00,0.0,WeatherDisplay:10.37,2013-01-12 10:18:00,
2013-01-12 02:23:00,12.7,7.7,30.36,North,360,11.5,11.5,80,0.00,CLR,,0.00,0.0,WeatherDisplay:10.37,2013-01-12 10:23:00,
2013-01-12 02:28:00,12.7,7.7,30.36,North,360,10.4,10.4,80,0.00,CLR,,0.00,0.0,WeatherDisplay:10.37,2013-01-12 10:28:00,
2013-01-12 02:33:00,12.8,7.8,30.36,North,360,5.0,5.0,80,0.00,CLR,,0.00,0.0,WeatherDisplay:10.37,2013-01-12 10:33:00,
2013-01-12 02:39:00,12.8,7.8,30.36,North,360,6.0,6.0,80,0.00,CLR,,0.00,0.0,WeatherDisplay:10.37,2013-01-12 10:39:00,
2013-01-12 02:44:00,12.8,7.8,30.36,North,360,9.2,9.2,80,0.00,CLR,,0.00,0.0,WeatherDisplay:10.37,2013-01-12 10:44:00,
2013-01-12 02:49:00,12.9,7.9,30.36,North,360,9.2,9.2,80,0.00,CLR,,0.00,0.0,WeatherDisplay:10.37,2013-01-12 10:49:00,
2013-01-12 02:54:00,12.9,7.9,30.36,North,360,9.2,9.2,80,0.00,CLR,,0.00,0.0,WeatherDisplay:10.37,2013-01-12 10:54:00,
2013-01-12 02:59:00,13.0,8.0,30.36,North,360,10.4,10.4,80,0.00,CLR,,0.00,0.0,WeatherDisplay:10.37,2013-01-12 10:59:00,
2013-01-12 03:04:00,13.0,8.0,30.36,North,360,10.4,10.4,80,0.00,CLR,,0.00,0.0,WeatherDisplay:10.37,2013-01-12 11:04:00,
2013-01-12 03:09:00,13.1,8.1,30.37,North,360,9.2,9.2,80,0.00,CLR,,0.00,0.0,WeatherDisplay:10.37,2013-01-12 11:09:00,
2013-01-12 03:14:00,13.1,8.1,30.37,North,360,9.2,9.2,80,0.00,CLR,,0.00,0.0,WeatherDisplay:10.37,2013-01-12 11:14:00,
2013-01-12 03:19:00,13.1,8.1,30.37,North,360,10.4,10.4,80,0.00,CLR,,0.00,0.0,WeatherDisplay:10.37,2013-01-12 11:19:00,
2013-01-12 03:24:00,13.2,8.2,30.36,North,360,6.9,6.9,80,0.00,CLR,,0.00,0.0,WeatherDisplay:10.37,2013-01-12 11:24:00,
2013-01-12 03:29:00,13.2,8.2,30.36,North,360,8.1,8.1,80,0.00,CLR,,0.00,0.0,WeatherDisplay:10.37,2013-01-12 11:29:00,
2013-01-12 03:34:00,13.2,8.2,30.36,North,360,10.4,10.4,80,0.00,CLR,,0.00,0.0,WeatherDisplay:10.37,2013-01-12 11:34:00,
2013-01-12 03:39:00,13.2,8.2,30.36,North,360,5.8,5.8,80,0.00,CLR,,0.00,0.0,WeatherDisplay:10.37,2013-01-12 11:39:00,
2013-01-12 03:44:00,13.2,8.2,30.36,North,360,5.8,5.8,80,0.00,CLR,,0.00,0.0,WeatherDisplay:10.37,2013-01-12 11:44:00,
2013-01-12 03:49:00,13.1,8.4,30.36,North,360,8.1,8.1,81,0.00,CLR,,0.00,0.0,WeatherDisplay:10.37,2013-01-12 11:49:00,
2013-01-12 03:54:00,13.1,8.4,30.35,North,360,10.4,10.4,81,0.00,CLR,,0.00,0.0,WeatherDisplay:10.37,2013-01-12 11:54:00,
2013-01-12 03:59:00,13.1,8.1,30.35,North,360,11.5,11.5,80,0.00,CLR,,0.00,0.0,WeatherDisplay:10.37,2013-01-12 11:59:00,
2013-01-12 04:04:00,13.1,8.1,30.35,North,360,10.4,10.4,80,0.00,CLR,,0.00,0.0,WeatherDisplay:10.37,2013-01-12 12:04:00,
2013-01-12 04:09:00,13.0,8.3,30.34,North,360,9.2,9.2,81,0.00,CLR,,0.00,0.0,WeatherDisplay:10.37,2013-01-12 12:09:00,
2013-01-12 04:14:00,13.0,8.3,30.34,North,360,11.5,11.5,81,0.00,CLR,,0.00,0.0,WeatherDisplay:10.37,2013-01-12 12:14:00,
2013-01-12 04:19:00,13.0,8.0,30.34,North,360,10.4,10.4,80,0.00,CLR,,0.00,0.0,WeatherDisplay:10.37,2013-01-12 12:19:00,
2013-01-12 04:24:00,12.9,7.9,30.34,North,360,6.9,6.9,80,0.00,CLR,,0.00,0.0,WeatherDisplay:10.37,2013-01-12 12:24:00,
2013-01-12 04:29:00,12.8,7.8,30.35,North,360,9.2,9.2,80,0.00,CLR,,0.00,0.0,WeatherDisplay:10.37,2013-01-12 12:29:00,
2013-01-12 04:34:00,12.7,7.7,30.35,North,360,12.0,12.0,80,0.00,CLR,,0.00,0.0,WeatherDisplay:10.37,2013-01-12 12:34:00,
2013-01-12 04:39:00,12.7,7.7,30.34,North,360,9.2,9.2,80,0.00,CLR,,0.00,0.0,WeatherDisplay:10.37,2013-01-12 12:39:00,
2013-01-12 04:44:00,12.5,7.5,30.36,North,360,9.2,9.2,80,0.00,CLR,,0.00,0.0,WeatherDisplay:10.37,2013-01-12 12:44:00,
2013-01-12 04:49:00,12.4,7.1,30.36,North,360,6.9,6.9,79,0.00,CLR,,0.00,0.0,WeatherDisplay:10.37,2013-01-12 12:49:00,
2013-01-12 04:54:00,12.2,6.9,30.36,North,360,11.5,11.5,79,0.00,CLR,,0.00,0.0,WeatherDisplay:10.37,2013-01-12 12:54:00,
2013-01-12 04:59:00,12.1,7.1,30.35,North,360,9.2,9.2,80,0.00,CLR,,0.00,0.0,WeatherDisplay:10.37,2013-01-12 12:59:00,
2013-01-12 05:04:00,11.9,6.6,30.35,North,360,11.5,11.5,79,0.00,CLR,,0.00,0.0,WeatherDisplay:10.37,2013-01-12 13:04:00,
2013-01-12 05:09:00,11.8,6.8,30.36,North,360,12.7,12.7,80,0.00,CLR,,0.00,0.0,WeatherDisplay:10.37,2013-01-12 13:09:00,
2013-01-12 05:14:00,11.7,6.7,30.35,North,360,11.5,11.5,80,0.00,CLR,,0.00,0.0,WeatherDisplay:10.37,2013-01-12 13:14:00,
2013-01-12 05:19:00,11.6,6.6,30.36,North,360,11.5,11.5,80,0.00,CLR,,0.00,0.0,WeatherDisplay:10.37,2013-01-12 13:19:00,
2013-01-12 05:24:00,11.5,6.5,30.35,North,360,15.0,15.0,80,0.00,CLR,,0.00,0.0,WeatherDisplay:10.37,2013-01-12 13:24:00,
2013-01-12 05:29:00,11.5,6.5,30.35,North,360,9.2,9.2,80,0.00,CLR,,0.00,0.0,WeatherDisplay:10.37,2013-01-12 13:29:00,
2013-01-12 05:34:00,11.5,6.5,30.35,North,360,8.1,8.1,80,0.00,CLR,,0.00,0.0,WeatherDisplay:10.37,2013-01-12 13:34:00,
2013-01-12 05:39:00,11.5,6.5,30.35,North,360,10.4,10.4,80,0.00,CLR,,0.00,0.0,WeatherDisplay:10.37,2013-01-12 13:39:00,
2013-01-12 05:44:00,11.4,6.4,30.35,North,360,6.9,6.9,80,0.00,CLR,,0.00,0.0,WeatherDisplay:10.37,2013-01-12 13:44:00,
2013-01-12 05:49:00,11.4,6.4,30.35,North,360,9.2,9.2,80,0.00,CLR,,0.00,0.0,WeatherDisplay:10.37,2013-01-12 13:49:00,
2013-01-12 05:54:00,11.4,6.4,30.35,North,360,9.0,9.0,80,0.00,CLR,,0.00,0.0,WeatherDisplay:10.37,2013-01-12 13:54:00,
2013-01-12 05:59:00,11.4,6.7,30.35,North,360,9.2,9.2,81,0.00,CLR,,0.00,0.0,WeatherDisplay:10.37,2013-01-12 13:59:00,
2013-01-12 06:04:00,11.4,6.7,30.35,North,360,7.0,7.0,81,0.00,CLR,,0.00,0.0,WeatherDisplay:10.37,2013-01-12 14:04:00,
2013-01-12 06:09:00,11.3,6.6,30.36,North,360,7.0,7.0,81,0.00,CLR,,0.00,0.0,WeatherDisplay:10.37,2013-01-12 14:09:00,
2013-01-12 06:14:00,11.3,6.6,30.36,North,360,9.2,9.2,81,0.00,CLR,,0.00,0.0,WeatherDisplay:10.37,2013-01-12 14:14:00,
2013-01-12 06:19:00,11.3,6.6,30.36,North,360,5.8,5.8,81,0.00,CLR,,0.00,0.0,WeatherDisplay:10.37,2013-01-12 14:19:00,
2013-01-12 06:24:00,11.2,6.5,30.36,North,360,11.5,11.5,81,0.00,CLR,,0.00,0.0,WeatherDisplay:10.37,2013-01-12 14:24:00,
2013-01-12 06:29:00,11.3,6.3,30.37,North,360,10.4,10.4,80,0.00,CLR,,0.00,0.0,WeatherDisplay:10.37,2013-01-12 14:29:00,
2013-01-12 06:34:00,11.2,6.2,30.37,North,360,10.4,10.4,80,0.00,CLR,,0.00,0.0,WeatherDisplay:10.37,2013-01-12 14:34:00,
2013-01-12 06:39:00,11.2,6.5,30.37,North,360,9.2,9.2,81,0.00,CLR,,0.00,0.0,WeatherDisplay:10.37,2013-01-12 14:39:00,
2013-01-12 06:44:00,11.2,6.5,30.37,North,360,14.0,14.0,81,0.00,CLR,,0.00,0.0,WeatherDisplay:10.37,2013-01-12 14:44:00,
2013-01-12 06:49:00,11.2,6.5,30.37,North,360,11.5,11.5,81,0.00,CLR,,0.00,0.0,WeatherDisplay:10.37,2013-01-12 14:49:00,
2013-01-12 06:54:00,11.3,6.6,30.38,North,360,13.8,13.8,81,0.00,CLR,,0.00,0.0,WeatherDisplay:10.37,2013-01-12 14:54:00,
2013-01-12 06:59:00,11.3,6.6,30.37,North,360,9.2,9.2,81,0.00,CLR,,0.00,0.0,WeatherDisplay:10.37,2013-01-12 14:59:00,
2013-01-12 07:04:00,11.3,6.3,30.37,North,360,11.5,11.5,80,0.00,CLR,,0.00,0.0,WeatherDisplay:10.37,2013-01-12 15:04:00,
2013-01-12 07:09:00,11.2,6.2,30.37,North,360,9.2,9.2,80,0.00,CLR,,0.00,0.0,WeatherDisplay:10.37,2013-01-12 15:09:00,
2013-01-12 07:14:00,11.1,6.1,30.37,North,360,11.0,11.0,80,0.00,CLR,,0.00,0.0,WeatherDisplay:10.37,2013-01-12 15:14:00,
2013-01-12 07:19:00,11.0,6.0,30.37,North,360,10.4,10.4,80,0.00,CLR,,0.00,0.0,WeatherDisplay:10.37,2013-01-12 15:19:00,
2013-01-12 07:24:00,10.8,5.8,30.37,North,360,11.5,11.5,80,0.00,CLR,,0.00,0.0,WeatherDisplay:10.37,2013-01-12 15:24:00,
2013-01-12 07:29:00,10.7,5.7,30.37,North,360,12.7,12.7,80,0.00,CLR,,0.00,0.0,WeatherDisplay:10.37,2013-01-12 15:29:00,
2013-01-12 07:34:00,10.5,5.5,30.37,North,360,12.7,12.7,80,0.00,CLR,,0.00,5.0,WeatherDisplay:10.37,2013-01-12 15:34:00,
2013-01-12 07:39:00,10.4,5.5,30.37,North,360,13.8,13.8,80,0.00,OVC,,0.00,5.0,WeatherDisplay:10.37,2013-01-12 15:39:00,
2013-01-12 07:44:00,10.4,5.5,30.37,North,360,9.2,9.2,80,0.00,SCT,,0.00,7.0,WeatherDisplay:10.37,2013-01-12 15:44:00,
2013-01-12 07:49:00,10.3,5.6,30.37,North,360,14.0,14.0,81,0.00,SCT,,0.00,9.0,WeatherDisplay:10.37,2013-01-12 15:49:00,
2013-01-12 07:54:00,10.3,5.4,30.38,North,360,13.0,13.0,80,0.00,SCT,,0.00,11.0,WeatherDisplay:10.37,2013-01-12 15:54:00,
2013-01-12 07:59:00,10.3,5.4,30.38,North,360,16.1,16.1,80,0.00,SCT,,0.00,12.0,WeatherDisplay:10.37,2013-01-12 15:59:00,
2013-01-12 08:04:00,10.2,5.3,30.38,North,360,11.0,11.0,80,0.00,SCT,,0.00,14.0,WeatherDisplay:10.37,2013-01-12 16:04:00,
2013-01-12 08:09:00,10.3,5.4,30.38,North,360,11.5,11.5,80,0.00,SCT,,0.00,16.0,WeatherDisplay:10.37,2013-01-12 16:09:00,
2013-01-12 08:14:00,10.3,5.4,30.38,North,360,11.5,11.5,80,0.00,SCT,,0.00,19.0,WeatherDisplay:10.37,2013-01-12 16:14:00,
2013-01-12 08:19:00,10.4,5.5,30.38,North,360,14.0,14.0,80,0.00,SCT,,0.00,21.0,WeatherDisplay:10.37,2013-01-12 16:19:00,
2013-01-12 08:24:00,10.5,5.5,30.39,North,360,10.0,10.0,80,0.00,SCT,,0.00,28.0,WeatherDisplay:10.37,2013-01-12 16:24:00,
2013-01-12 08:29:00,10.6,5.6,30.38,North,360,15.0,15.0,80,0.00,SCT,,0.00,46.0,WeatherDisplay:10.37,2013-01-12 16:29:00,
2013-01-12 08:34:00,10.8,5.8,30.39,North,360,12.7,12.7,80,0.00,SCT,,0.00,47.0,WeatherDisplay:10.37,2013-01-12 16:34:00,
2013-01-12 08:39:00,11.0,6.0,30.38,North,360,9.2,9.2,80,0.00,SCT,,0.00,84.0,WeatherDisplay:10.37,2013-01-12 16:39:00,
2013-01-12 08:44:00,11.4,6.4,30.39,North,360,11.0,11.0,80,0.00,SCT,,0.00,93.0,WeatherDisplay:10.37,2013-01-12 16:44:00,
2013-01-12 08:49:00,11.8,6.8,30.39,North,360,7.0,7.0,80,0.00,FEW,,0.00,111.0,WeatherDisplay:10.37,2013-01-12 16:49:00,
2013-01-12 08:54:00,12.3,7.3,30.39,North,360,7.0,7.0,80,0.00,FEW,,0.00,118.0,WeatherDisplay:10.37,2013-01-12 16:54:00,
2013-01-12 08:59:00,12.8,7.8,30.39,North,360,6.9,6.9,80,0.00,FEW,,0.00,141.0,WeatherDisplay:10.37,2013-01-12 16:59:00,
2013-01-12 09:04:00,13.4,8.4,30.39,North,360,7.0,7.0,80,0.00,CLR,,0.00,130.0,WeatherDisplay:10.37,2013-01-12 17:04:00,
2013-01-12 09:09:00,13.9,8.6,30.39,North,360,5.0,5.0,79,0.00,FEW,,0.00,120.0,WeatherDisplay:10.37,2013-01-12 17:09:00,
2013-01-12 09:14:00,14.3,8.7,30.39,North,360,6.0,6.0,78,0.00,SCT,,0.00,95.0,WeatherDisplay:10.37,2013-01-12 17:14:00,
2013-01-12 09:19:00,14.6,9.0,30.39,North,360,9.2,9.2,78,0.00,SCT,,0.00,91.0,WeatherDisplay:10.37,2013-01-12 17:19:00,
2013-01-12 09:24:00,14.9,9.0,30.39,North,360,10.0,10.0,77,0.00,SCT,,0.00,192.0,WeatherDisplay:10.37,2013-01-12 17:24:00,
2013-01-12 09:29:00,15.3,9.4,30.39,North,360,11.5,11.5,77,0.00,FEW,,0.00,216.0,WeatherDisplay:10.37,2013-01-12 17:29:00,
2013-01-12 09:34:00,15.7,9.5,30.39,North,360,12.0,12.0,76,0.00,CLR,,0.00,232.0,WeatherDisplay:10.37,2013-01-12 17:34:00,
2013-01-12 09:39:00,16.1,9.9,30.40,North,360,11.5,11.5,76,0.00,CLR,,0.00,246.0,WeatherDisplay:10.37,2013-01-12 17:39:00,
2013-01-12 09:44:00,16.6,10.1,30.40,North,360,13.0,13.0,75,0.00,CLR,,0.00,181.0,WeatherDisplay:10.37,2013-01-12 17:44:00,
2013-01-12 09:49:00,16.9,10.0,30.41,North,360,12.0,12.0,74,0.00,CLR,,0.00,253.0,WeatherDisplay:10.37,2013-01-12 17:49:00,
2013-01-12 09:54:00,17.1,10.2,30.40,North,360,12.0,12.0,74,0.00,CLR,,0.00,241.0,WeatherDisplay:10.37,2013-01-12 17:54:00,
2013-01-12 09:59:00,17.3,10.4,30.40,North,360,5.0,5.0,74,0.00,CLR,,0.00,142.0,WeatherDisplay:10.37,2013-01-12 17:59:00,
2013-01-12 10:04:00,17.6,10.4,30.40,North,360,9.0,9.0,73,0.00,FEW,,0.00,156.0,WeatherDisplay:10.37,2013-01-12 18:04:00,
2013-01-12 10:09:00,17.8,10.6,30.40,North,360,11.5,11.5,73,0.00,SCT,,0.00,172.0,WeatherDisplay:10.37,2013-01-12 18:09:00,
2013-01-12 10:14:00,18.0,10.8,30.40,North,360,8.1,8.1,73,0.00,SCT,,0.00,211.0,WeatherDisplay:10.37,2013-01-12 18:14:00,
2013-01-12 10:19:00,18.1,10.9,30.40,North,360,6.9,6.9,73,0.00,SCT,,0.00,199.0,WeatherDisplay:10.37,2013-01-12 18:19:00,
2013-01-12 10:24:00,18.4,10.9,30.40,North,360,10.0,10.0,72,0.00,FEW,,0.00,253.0,WeatherDisplay:10.37,2013-01-12 18:24:00,
2013-01-12 10:29:00,18.6,11.1,30.40,North,360,9.2,9.2,72,0.00,CLR,,0.00,325.0,WeatherDisplay:10.37,2013-01-12 18:29:00,
2013-01-12 10:34:00,18.8,11.3,30.40,North,360,10.0,10.0,72,0.00,CLR,,0.00,269.0,WeatherDisplay:10.37,2013-01-12 18:34:00,
2013-01-12 10:39:00,19.0,11.1,30.39,North,360,12.0,12.0,71,0.00,CLR,,0.00,322.0,WeatherDisplay:10.37,2013-01-12 18:39:00,
2013-01-12 10:44:00,19.1,11.2,30.39,North,360,8.1,8.1,71,0.00,CLR,,0.00,262.0,WeatherDisplay:10.37,2013-01-12 18:44:00,
2013-01-12 10:49:00,19.3,11.7,30.39,North,360,7.0,7.0,72,0.00,CLR,,0.00,202.0,WeatherDisplay:10.37,2013-01-12 18:49:00,
2013-01-12 10:54:00,19.5,11.3,30.39,North,360,10.0,10.0,70,0.00,SCT,,0.00,178.0,WeatherDisplay:10.37,2013-01-12 18:54:00,
2013-01-12 10:59:00,19.7,11.5,30.39,North,360,9.2,9.2,70,0.00,SCT,,0.00,172.0,WeatherDisplay:10.37,2013-01-12 18:59:00,
2013-01-12 11:04:00,19.9,11.7,30.39,North,360,4.0,4.0,70,0.00,SCT,,0.00,179.0,WeatherDisplay:10.37,2013-01-12 19:04:00,
2013-01-12 11:09:00,20.1,11.6,30.38,North,360,10.4,10.4,69,0.00,SCT,,0.00,181.0,WeatherDisplay:10.37,2013-01-12 19:09:00,
2013-01-12 11:14:00,20.2,12.0,30.39,North,360,7.0,7.0,70,0.00,SCT,,0.00,178.0,WeatherDisplay:10.37,2013-01-12 19:14:00,
2013-01-12 11:19:00,20.4,11.8,30.38,North,360,10.0,10.0,69,0.00,SCT,,0.00,179.0,WeatherDisplay:10.37,2013-01-12 19:19:00,
2013-01-12 11:24:00,20.7,11.8,30.38,North,360,11.5,11.5,68,0.00,SCT,,0.00,193.0,WeatherDisplay:10.37,2013-01-12 19:24:00,
2013-01-12 11:29:00,20.9,12.0,30.39,North,360,7.0,7.0,68,0.00,SCT,,0.00,229.0,WeatherDisplay:10.37,2013-01-12 19:29:00,
2013-01-12 11:34:00,21.2,12.3,30.38,North,360,5.0,5.0,68,0.00,SCT,,0.00,271.0,WeatherDisplay:10.37,2013-01-12 19:34:00,
2013-01-12 11:39:00,21.4,12.1,30.38,North,360,10.0,10.0,67,0.00,FEW,,0.00,346.0,WeatherDisplay:10.37,2013-01-12 19:39:00,
2013-01-12 11:44:00,21.8,12.5,30.38,North,360,8.1,8.1,67,0.00,CLR,,0.00,295.0,WeatherDisplay:10.37,2013-01-12 19:44:00,
2013-01-12 11:49:00,22.2,12.6,30.37,North,360,9.0,9.0,66,0.00,CLR,,0.00,239.0,WeatherDisplay:10.37,2013-01-12 19:49:00,
2013-01-12 11:54:00,22.5,12.8,30.37,North,360,9.0,9.0,66,0.00,SCT,,0.00,211.0,WeatherDisplay:10.37,2013-01-12 19:54:00,
2013-01-12 11:59:00,22.8,12.4,30.37,North,360,5.8,5.8,64,0.00,SCT,,0.00,197.0,WeatherDisplay:10.37,2013-01-12 19:59:00,
2013-01-12 12:04:00,22.9,12.2,30.37,North,360,5.0,5.0,63,0.00,SCT,,0.00,206.0,WeatherDisplay:10.37,2013-01-12 20:04:00,
2013-01-12 12:09:00,23.0,12.6,30.37,North,360,3.5,3.5,64,0.00,SCT,,0.00,239.0,WeatherDisplay:10.37,2013-01-12 20:09:00,
2013-01-12 12:14:00,23.1,12.4,30.37,North,360,5.8,5.8,63,0.00,SCT,,0.00,258.0,WeatherDisplay:10.37,2013-01-12 20:14:00,
2013-01-12 12:19:00,23.4,12.6,30.37,North,360,5.0,5.0,63,0.00,FEW,,0.00,313.0,WeatherDisplay:10.37,2013-01-12 20:19:00,
2013-01-12 12:24:00,23.7,12.9,30.37,North,360,9.2,9.2,63,0.00,CLR,,0.00,366.0,WeatherDisplay:10.37,2013-01-12 20:24:00,
2013-01-12 12:29:00,24.1,12.9,30.37,North,360,5.8,5.8,62,0.00,CLR,,0.00,404.0,WeatherDisplay:10.37,2013-01-12 20:29:00,
2013-01-12 12:34:00,24.4,12.9,30.36,North,360,5.0,5.0,61,0.00,CLR,,0.00,371.0,WeatherDisplay:10.37,2013-01-12 20:34:00,
2013-01-12 12:39:00,24.7,12.8,30.36,North,360,5.0,5.0,60,0.00,CLR,,0.00,223.0,WeatherDisplay:10.37,2013-01-12 20:39:00,
2013-01-12 12:44:00,25.0,12.7,30.36,North,360,6.0,6.0,59,0.00,FEW,,0.00,401.0,WeatherDisplay:10.37,2013-01-12 20:44:00,
2013-01-12 12:49:00,25.1,12.8,30.36,North,360,4.0,4.0,59,0.00,FEW,,0.00,329.0,WeatherDisplay:10.37,2013-01-12 20:49:00,
2013-01-12 12:54:00,25.1,12.8,30.36,North,360,4.0,4.0,59,0.00,CLR,,0.00,329.0,WeatherDisplay:10.37,2013-01-12 20:54:00,
2013-01-12 12:59:00,25.1,12.8,30.37,North,0,0.0,0.0,59,0.00,SCT,,0.00,0.0,WeatherDisplay:10.37,2013-01-12 20:59:00,
2013-01-12 13:04:00,25.1,12.8,30.37,North,0,0.0,0.0,59,0.00,BKN,,0.00,0.0,WeatherDisplay:10.37,2013-01-12 21:04:00,
2013-01-12 13:09:00,25.1,12.8,30.37,North,0,0.0,0.0,59,0.00,OVC,,0.00,0.0,WeatherDisplay:10.37,2013-01-12 21:09:00,
2013-01-12 13:14:00,25.1,12.8,30.36,North,0,0.0,0.0,59,0.00,OVC,,0.00,0.0,WeatherDisplay:10.37,2013-01-12 21:14:00,
2013-01-12 13:19:00,25.1,12.8,30.37,North,0,0.0,0.0,59,0.00,OVC,,0.00,0.0,WeatherDisplay:10.37,2013-01-12 21:19:00,
2013-01-12 13:24:00,25.1,12.8,30.36,North,0,0.0,0.0,59,0.00,OVC,,0.00,0.0,WeatherDisplay:10.37,2013-01-12 21:24:00,
2013-01-12 13:29:00,25.9,13.1,30.36,North,360,3.0,3.0,58,0.00,OVC,,0.00,364.0,WeatherDisplay:10.37,2013-01-12 21:29:00,
2013-01-12 13:34:00,25.9,13.1,30.37,North,360,5.0,5.0,58,0.00,SCT,,0.00,380.0,WeatherDisplay:10.37,2013-01-12 21:34:00,
2013-01-12 13:39:00,25.9,13.1,30.37,North,360,3.0,3.0,58,0.00,CLR,,0.00,373.0,WeatherDisplay:10.37,2013-01-12 21:39:00,
2013-01-12 13:44:00,26.0,12.8,30.37,North,360,3.5,3.5,57,0.00,CLR,,0.00,371.0,WeatherDisplay:10.37,2013-01-12 21:44:00,
2013-01-12 13:49:00,26.2,12.6,30.37,North,360,2.3,2.3,56,0.00,CLR,,0.00,366.0,WeatherDisplay:10.37,2013-01-12 21:49:00,
2013-01-12 13:54:00,26.4,12.4,30.38,North,360,4.0,4.0,55,0.00,CLR,,0.00,364.0,WeatherDisplay:10.37,2013-01-12 21:54:00,
2013-01-12 13:59:00,26.6,13.8,30.38,NE,52,2.3,0.0,58,0.00,CLR,,0.00,353.0,WeatherDisplay:10.37,2013-01-12 21:59:00,
2013-01-12 14:04:00,26.8,12.8,30.38,NNE,28,4.0,4.0,55,0.00,CLR,,0.00,313.0,WeatherDisplay:10.37,2013-01-12 22:04:00,
2013-01-12 14:09:00,27.0,12.5,30.38,North,360,4.6,4.6,54,0.00,CLR,,0.00,320.0,WeatherDisplay:10.37,2013-01-12 22:09:00,
2013-01-12 14:14:00,27.0,11.3,30.38,North,360,6.0,6.0,51,0.00,CLR,,0.00,311.0,WeatherDisplay:10.37,2013-01-12 22:14:00,
2013-01-12 14:19:00,27.1,11.3,30.38,North,360,5.0,5.0,51,0.00,CLR,,0.00,306.0,WeatherDisplay:10.37,2013-01-12 22:19:00,
2013-01-12 14:24:00,27.2,11.4,30.39,North,360,4.6,4.6,51,0.00,CLR,,0.00,295.0,WeatherDisplay:10.37,2013-01-12 22:24:00,
2013-01-12 14:29:00,27.3,11.1,30.39,North,360,5.8,5.8,50,0.00,CLR,,0.00,287.0,WeatherDisplay:10.37,2013-01-12 22:29:00,
2013-01-12 14:34:00,27.6,10.9,30.39,North,360,4.0,4.0,49,0.00,CLR,,0.00,272.0,WeatherDisplay:10.37,2013-01-12 22:34:00,
2013-01-12 14:39:00,27.7,11.9,30.39,NE,46,9.0,9.0,51,0.00,CLR,,0.00,265.0,WeatherDisplay:10.37,2013-01-12 22:39:00,
2013-01-12 14:44:00,27.7,11.5,30.39,North,360,5.8,5.8,50,0.00,CLR,,0.00,248.0,WeatherDisplay:10.37,2013-01-12 22:44:00,
2013-01-12 14:49:00,27.8,11.5,30.39,North,360,2.3,2.3,50,0.00,CLR,,0.00,236.0,WeatherDisplay:10.37,2013-01-12 22:49:00,
2013-01-12 14:54:00,27.9,10.7,30.40,North,360,4.0,4.0,48,0.00,CLR,,0.00,223.0,WeatherDisplay:10.37,2013-01-12 22:54:00,
2013-01-12 15:00:00,27.9,10.7,30.41,North,10,3.0,5.0,48,0.00,CLR,,0.00,209.0,WeatherDisplay:10.37,2013-01-12 23:00:00,
2013-01-12 15:05:00,28.1,10.9,30.41,NE,46,5.8,5.8,48,0.00,CLR,,0.00,199.0,WeatherDisplay:10.37,2013-01-12 23:05:00,
2013-01-12 15:10:00,27.9,10.7,30.41,NNE,22,5.8,5.8,48,0.00,CLR,,0.00,183.0,WeatherDisplay:10.37,2013-01-12 23:10:00,
2013-01-12 15:15:00,27.8,11.1,30.41,North,10,5.0,5.0,49,0.00,CLR,,0.00,169.0,WeatherDisplay:10.37,2013-01-12 23:15:00,
2013-01-12 15:20:00,27.8,10.6,30.41,North,11,2.0,5.0,48,0.00,CLR,,0.00,156.0,WeatherDisplay:10.37,2013-01-12 23:20:00,
2013-01-12 15:25:00,27.8,9.2,30.41,North,360,3.5,3.5,45,0.00,CLR,,0.00,142.0,WeatherDisplay:10.37,2013-01-12 23:25:00,
2013-01-12 15:30:00,27.8,8.7,30.41,North,360,3.5,3.5,44,0.00,CLR,,0.00,128.0,WeatherDisplay:10.37,2013-01-12 23:30:00,
2013-01-12 15:35:00,27.7,9.1,30.41,NE,42,4.6,4.6,45,0.00,CLR,,0.00,116.0,WeatherDisplay:10.37,2013-01-12 23:35:00,
2013-01-12 15:40:00,27.7,9.1,30.41,NNE,23,2.0,5.0,45,0.00,CLR,,0.00,100.0,WeatherDisplay:10.37,2013-01-12 23:40:00,
2013-01-12 15:45:00,27.8,8.7,30.41,North,360,3.5,3.5,44,0.00,CLR,,0.00,90.0,WeatherDisplay:10.37,2013-01-12 23:45:00,
2013-01-12 15:50:00,27.9,9.3,30.42,North,360,3.5,3.5,45,0.00,FEW,,0.00,76.0,WeatherDisplay:10.37,2013-01-12 23:50:00,
2013-01-12 15:55:00,27.9,9.3,30.41,North,360,2.3,2.3,45,0.00,FEW,,0.00,67.0,WeatherDisplay:10.37,2013-01-12 23:55:00,
2013-01-12 16:00:00,27.9,9.8,30.41,North,360,3.5,3.5,46,0.00,SCT,,0.00,56.0,WeatherDisplay:10.37,2013-01-13 00:00:00,
2013-01-12 16:05:00,27.9,10.2,30.41,NNE,13,3.5,3.5,47,0.00,SCT,,0.00,42.0,WeatherDisplay:10.37,2013-01-13 00:05:00,
2013-01-12 16:10:00,27.8,10.2,30.41,North,360,2.3,2.3,47,0.00,SCT,,0.00,33.0,WeatherDisplay:10.37,2013-01-13 00:10:00,
2013-01-12 16:16:00,27.6,9.0,30.41,North,360,4.6,4.6,45,0.00,SCT,,0.00,25.0,WeatherDisplay:10.37,2013-01-13 00:16:00,
2013-01-12 16:21:00,27.4,9.3,30.41,North,360,1.1,1.1,46,0.00,SCT,,0.00,23.0,WeatherDisplay:10.37,2013-01-13 00:21:00,
2013-01-12 16:26:00,27.2,9.6,30.40,North,360,2.0,2.0,47,0.00,SCT,,0.00,18.0,WeatherDisplay:10.37,2013-01-13 00:26:00,
2013-01-12 16:31:00,27.1,9.5,30.41,North,360,3.5,3.5,47,0.00,SCT,,0.00,16.0,WeatherDisplay:10.37,2013-01-13 00:31:00,
2013-01-12 16:36:00,26.9,9.3,30.41,NNE,26,3.5,3.5,47,0.00,SCT,,0.00,12.0,WeatherDisplay:10.37,2013-01-13 00:36:00,
2013-01-12 16:41:00,26.5,9.9,30.41,NNE,31,2.3,2.3,49,0.00,CLR,,0.00,11.0,WeatherDisplay:10.37,2013-01-13 00:41:00,
2013-01-12 16:46:00,26.0,9.9,30.42,NNE,19,3.5,3.5,50,0.00,OVC,,0.00,7.0,WeatherDisplay:10.37,2013-01-13 00:46:00,
2013-01-12 16:51:00,25.6,10.0,30.42,NNE,27,1.1,1.1,51,0.00,CLR,,0.00,5.0,WeatherDisplay:10.37,2013-01-13 00:51:00,
2013-01-12 16:56:00,25.2,10.0,30.43,NNE,19,1.1,1.1,52,0.00,CLR,,0.00,0.0,WeatherDisplay:10.37,2013-01-13 00:56:00,
2013-01-12 17:01:00,24.9,10.2,30.42,NNE,25,2.3,2.3,53,0.00,CLR,,0.00,0.0,WeatherDisplay:10.37,2013-01-13 01:01:00,
2013-01-12 17:06:00,24.6,9.9,30.43,NNE,24,2.3,2.3,53,0.00,CLR,,0.00,0.0,WeatherDisplay:10.37,2013-01-13 01:06:00,
2013-01-12 17:11:00,24.3,10.0,30.42,NNE,24,2.3,2.3,54,0.00,CLR,,0.00,0.0,WeatherDisplay:10.37,2013-01-13 01:11:00,
2013-01-12 17:16:00,24.1,10.2,30.43,NNE,23,0.0,0.0,55,0.00,CLR,,0.00,0.0,WeatherDisplay:10.37,2013-01-13 01:16:00,
2013-01-12 17:21:00,23.9,10.5,30.43,North,5,1.1,0.0,56,0.00,CLR,,0.00,0.0,WeatherDisplay:10.37,2013-01-13 01:21:00,
2013-01-12 17:26:00,23.5,10.5,30.43,NNE,17,2.3,2.3,57,0.00,CLR,,0.00,0.0,WeatherDisplay:10.37,2013-01-13 01:26:00,
2013-01-12 17:31:00,23.3,11.1,30.43,NNE,17,1.1,1.1,59,0.00,CLR,,0.00,0.0,WeatherDisplay:10.37,2013-01-13 01:31:00,
2013-01-12 17:36:00,23.1,10.9,30.44,NNE,17,2.3,2.3,59,0.00,CLR,,0.00,0.0,WeatherDisplay:10.37,2013-01-13 01:36:00,
2013-01-12 17:41:00,22.9,11.1,30.44,North,9,1.1,1.1,60,0.00,CLR,,0.00,0.0,WeatherDisplay:10.37,2013-01-13 01:41:00,
2013-01-12 17:46:00,22.7,11.3,30.43,North,9,0.0,0.0,61,0.00,CLR,,0.00,0.0,WeatherDisplay:10.37,2013-01-13 01:46:00,
2013-01-12 17:51:00,22.5,11.1,30.43,North,9,0.0,0.0,61,0.00,CLR,,0.00,0.0,WeatherDisplay:10.37,2013-01-13 01:51:00,
2013-01-12 17:56:00,22.2,11.1,30.43,North,9,1.1,0.0,62,0.00,CLR,,0.00,0.0,WeatherDisplay:10.37,2013-01-13 01:56:00,
2013-01-12 18:01:00,22.1,11.1,30.43,North,9,0.0,0.0,62,0.00,CLR,,0.00,0.0,WeatherDisplay:10.37,2013-01-13 02:01:00,
2013-01-12 18:06:00,21.8,11.1,30.43,North,9,0.0,0.0,63,0.00,CLR,,0.00,0.0,WeatherDisplay:10.37,2013-01-13 02:06:00,
2013-01-12 18:11:00,21.7,11.0,30.43,North,9,0.0,0.0,63,0.00,CLR,,0.00,0.0,WeatherDisplay:10.37,2013-01-13 02:11:00,
2013-01-12 18:16:00,21.5,11.2,30.43,North,9,0.0,0.0,64,0.00,CLR,,0.00,0.0,WeatherDisplay:10.37,2013-01-13 02:16:00,
2013-01-12 18:21:00,21.2,10.9,30.43,North,9,0.0,0.0,64,0.00,CLR,,0.00,0.0,WeatherDisplay:10.37,2013-01-13 02:21:00,
2013-01-12 18:26:00,21.0,11.1,30.43,North,9,1.1,0.0,65,0.00,CLR,,0.00,0.0,WeatherDisplay:10.37,2013-01-13 02:26:00,
2013-01-12 18:31:00,20.8,11.2,30.43,North,5,1.1,1.1,66,0.00,CLR,,0.00,0.0,WeatherDisplay:10.37,2013-01-13 02:31:00,
2013-01-12 18:36:00,20.5,10.9,30.43,North,360,1.1,1.1,66,0.00,CLR,,0.00,0.0,WeatherDisplay:10.37,2013-01-13 02:36:00,
2013-01-12 18:41:00,20.3,11.1,30.42,North,360,1.1,1.1,67,0.00,CLR,,0.00,0.0,WeatherDisplay:10.37,2013-01-13 02:41:00,
2013-01-12 18:46:00,20.0,11.1,30.42,North,360,1.1,0.0,68,0.00,CLR,,0.00,0.0,WeatherDisplay:10.37,2013-01-13 02:46:00,
2013-01-12 18:51:00,19.7,10.8,30.43,North,360,1.1,1.1,68,0.00,CLR,,0.00,0.0,WeatherDisplay:10.37,2013-01-13 02:51:00,
2013-01-12 18:56:00,19.5,10.6,30.43,North,360,1.1,1.1,68,0.00,CLR,,0.00,0.0,WeatherDisplay:10.37,2013-01-13 02:56:00,
2013-01-12 19:01:00,19.4,10.9,30.43,North,360,0.0,0.0,69,0.00,CLR,,0.00,0.0,WeatherDisplay:10.37,2013-01-13 03:01:00,
2013-01-12 19:06:00,19.3,10.8,30.43,North,360,0.0,0.2,69,0.00,CLR,,0.00,0.0,WeatherDisplay:10.37,2013-01-13 03:06:00,
2013-01-12 19:11:00,19.0,10.5,30.44,North,360,3.5,3.5,69,0.00,CLR,,0.00,0.0,WeatherDisplay:10.37,2013-01-13 03:11:00,
2013-01-12 19:16:00,18.7,10.5,30.44,North,360,2.3,2.3,70,0.00,CLR,,0.00,0.0,WeatherDisplay:10.37,2013-01-13 03:16:00,
2013-01-12 19:21:00,18.5,10.7,30.44,North,360,3.5,3.5,71,0.00,CLR,,0.00,0.0,WeatherDisplay:10.37,2013-01-13 03:21:00,
2013-01-12 19:26:00,18.2,10.7,30.44,North,360,2.3,2.3,72,0.00,CLR,,0.00,0.0,WeatherDisplay:10.37,2013-01-13 03:26:00,
2013-01-12 19:31:00,18.1,10.6,30.44,North,360,2.3,2.3,72,0.00,CLR,,0.00,0.0,WeatherDisplay:10.37,2013-01-13 03:31:00,
2013-01-12 19:36:00,18.1,10.9,30.44,North,360,2.3,2.3,73,0.00,CLR,,0.00,0.0,WeatherDisplay:10.37,2013-01-13 03:36:00,
2013-01-12 19:41:00,18.1,10.9,30.45,North,360,2.3,2.3,73,0.00,CLR,,0.00,0.0,WeatherDisplay:10.37,2013-01-13 03:41:00,
2013-01-12 19:46:00,18.0,10.8,30.45,North,360,3.5,3.5,73,0.00,CLR,,0.00,0.0,WeatherDisplay:10.37,2013-01-13 03:46:00,
2013-01-12 19:51:00,18.1,10.9,30.46,North,360,3.0,3.0,73,0.00,CLR,,0.00,0.0,WeatherDisplay:10.37,2013-01-13 03:51:00,
2013-01-12 19:56:00,18.2,11.0,30.46,North,360,3.5,3.5,73,0.00,CLR,,0.00,0.0,WeatherDisplay:10.37,2013-01-13 03:56:00,
2013-01-12 20:01:00,18.3,10.8,30.46,North,360,3.5,3.5,72,0.00,CLR,,0.00,0.0,WeatherDisplay:10.37,2013-01-13 04:01:00,
2013-01-12 20:06:00,18.4,10.9,30.46,North,360,2.3,0.0,72,0.00,CLR,,0.00,0.0,WeatherDisplay:10.37,2013-01-13 04:06:00,
2013-01-12 20:11:00,18.2,10.7,30.47,North,360,0.0,0.0,72,0.00,CLR,,0.00,0.0,WeatherDisplay:10.37,2013-01-13 04:11:00,
2013-01-12 20:16:00,18.1,10.6,30.46,North,360,0.0,0.0,72,0.00,CLR,,0.00,0.0,WeatherDisplay:10.37,2013-01-13 04:16:00,
2013-01-12 20:21:00,18.0,10.5,30.46,North,360,0.0,0.0,72,0.00,CLR,,0.00,0.0,WeatherDisplay:10.37,2013-01-13 04:21:00,
2013-01-12 20:26:00,17.8,10.3,30.46,North,360,0.0,0.0,72,0.00,CLR,,0.00,0.0,WeatherDisplay:10.37,2013-01-13 04:26:00,
2013-01-12 20:31:00,17.6,10.1,30.45,North,360,0.0,0.0,72,0.00,CLR,,0.00,0.0,WeatherDisplay:10.37,2013-01-13 04:31:00,
2013-01-12 20:36:00,17.3,9.8,30.45,North,360,0.0,0.0,72,0.00,CLR,,0.00,0.0,WeatherDisplay:10.37,2013-01-13 04:36:00,
2013-01-12 20:41:00,17.0,9.5,30.45,North,360,3.0,3.0,72,0.00,CLR,,0.00,0.0,WeatherDisplay:10.37,2013-01-13 04:41:00,
2013-01-12 20:46:00,16.6,9.1,30.46,North,360,4.6,4.6,72,0.00,CLR,,0.00,0.0,WeatherDisplay:10.37,2013-01-13 04:46:00,
2013-01-12 20:51:00,16.2,9.1,30.46,North,360,3.5,3.5,73,0.00,CLR,,0.00,0.0,WeatherDisplay:10.37,2013-01-13 04:51:00,
2013-01-12 20:57:00,16.0,8.9,30.46,North,360,3.5,3.5,73,0.00,CLR,,0.00,0.0,WeatherDisplay:10.37,2013-01-13 04:57:00,
2013-01-12 21:00:00,15.7,8.6,30.46,North,360,2.3,2.3,73,0.00,CLR,,0.00,0.0,WeatherDisplay:10.37,2013-01-13 05:00:00,
2013-01-12 21:03:00,15.7,8.9,30.47,North,360,1.1,1.1,74,0.00,CLR,,0.00,0.0,WeatherDisplay:10.37,2013-01-13 05:03:00,
2013-01-12 21:04:00,15.6,8.8,30.47,North,360,1.1,1.1,74,0.00,CLR,,0.00,0.0,WeatherDisplay:10.37,2013-01-13 05:04:00,
2013-01-12 21:09:00,15.5,8.7,30.47,North,360,3.0,3.0,74,0.00,CLR,,0.00,0.0,WeatherDisplay:10.37,2013-01-13 05:09:00,
2013-01-12 21:14:00,15.3,8.5,30.47,North,360,1.1,1.1,74,0.00,CLR,,0.00,0.0,WeatherDisplay:10.37,2013-01-13 05:14:00,
2013-01-12 21:19:00,15.2,8.4,30.47,North,360,1.1,0.0,74,0.00,CLR,,0.00,0.0,WeatherDisplay:10.37,2013-01-13 05:19:00,
2013-01-12 21:24:00,15.0,8.2,30.47,North,360,3.5,3.5,74,0.00,CLR,,0.00,0.0,WeatherDisplay:10.37,2013-01-13 05:24:00,
2013-01-12 21:29:00,14.9,8.4,30.47,North,360,2.3,2.3,75,0.00,CLR,,0.00,0.0,WeatherDisplay:10.37,2013-01-13 05:29:00,
2013-01-12 21:34:00,14.8,8.3,30.46,North,360,2.3,2.3,75,0.00,CLR,,0.00,0.0,WeatherDisplay:10.37,2013-01-13 05:34:00,
2013-01-12 21:39:00,14.6,8.1,30.47,North,360,4.0,4.0,75,0.00,CLR,,0.00,0.0,WeatherDisplay:10.37,2013-01-13 05:39:00,
2013-01-12 21:44:00,14.4,7.9,30.47,North,360,3.0,3.0,75,0.00,CLR,,0.00,0.0,WeatherDisplay:10.37,2013-01-13 05:44:00,
2013-01-12 21:49:00,14.2,7.7,30.47,North,360,3.5,3.5,75,0.00,CLR,,0.00,0.0,WeatherDisplay:10.37,2013-01-13 05:49:00,
2013-01-12 21:54:00,14.0,7.8,30.47,North,360,2.3,2.3,76,0.00,CLR,,0.00,0.0,WeatherDisplay:10.37,2013-01-13 05:54:00,
2013-01-12 21:59:00,13.9,7.7,30.47,North,360,4.0,4.0,76,0.00,CLR,,0.00,0.0,WeatherDisplay:10.37,2013-01-13 05:59:00,
2013-01-12 22:04:00,13.7,7.5,30.47,North,360,3.5,3.5,76,0.00,CLR,,0.00,0.0,WeatherDisplay:10.37,2013-01-13 06:04:00,
2013-01-12 22:09:00,13.6,7.7,30.47,North,360,2.3,2.3,77,0.00,CLR,,0.00,0.0,WeatherDisplay:10.37,2013-01-13 06:09:00,
2013-01-12 22:14:00,13.5,7.6,30.47,North,360,3.0,3.0,77,0.00,CLR,,0.00,0.0,WeatherDisplay:10.37,2013-01-13 06:14:00,
2013-01-12 22:19:00,13.3,7.4,30.47,North,360,3.5,3.5,77,0.00,CLR,,0.00,0.0,WeatherDisplay:10.37,2013-01-13 06:19:00,
2013-01-12 22:24:00,13.2,7.3,30.47,North,360,3.0,3.0,77,0.00,CLR,,0.00,0.0,WeatherDisplay:10.37,2013-01-13 06:24:00,
2013-01-12 22:29:00,13.1,7.2,30.48,North,360,2.3,2.3,77,0.00,CLR,,0.00,0.0,WeatherDisplay:10.37,2013-01-13 06:29:00,
2013-01-12 22:34:00,13.0,7.1,30.48,North,360,3.5,3.5,77,0.00,CLR,,0.00,0.0,WeatherDisplay:10.37,2013-01-13 06:34:00,
2013-01-12 22:39:00,12.9,7.0,30.48,North,360,3.5,3.5,77,0.00,CLR,,0.00,0.0,WeatherDisplay:10.37,2013-01-13 06:39:00,
2013-01-12 22:44:00,12.8,7.2,30.48,North,360,1.1,1.1,78,0.00,CLR,,0.00,0.0,WeatherDisplay:10.37,2013-01-13 06:44:00,
2013-01-12 22:49:00,12.7,7.1,30.48,North,360,2.3,2.3,78,0.00,CLR,,0.00,0.0,WeatherDisplay:10.37,2013-01-13 06:49:00,
2013-01-12 22:54:00,12.6,7.0,30.49,North,360,3.0,3.0,78,0.00,CLR,,0.00,0.0,WeatherDisplay:10.37,2013-01-13 06:54:00,
2013-01-12 22:59:00,12.5,6.9,30.48,North,360,3.5,3.5,78,0.00,CLR,,0.00,0.0,WeatherDisplay:10.37,2013-01-13 06:59:00,
2013-01-12 23:04:00,12.4,6.8,30.49,North,360,6.0,6.0,78,0.00,CLR,,0.00,0.0,WeatherDisplay:10.37,2013-01-13 07:04:00,
2013-01-12 23:09:00,12.3,6.7,30.49,North,360,3.5,3.5,78,0.00,CLR,,0.00,0.0,WeatherDisplay:10.37,2013-01-13 07:09:00,
2013-01-12 23:14:00,12.2,6.9,30.49,North,360,3.5,3.5,79,0.00,CLR,,0.00,0.0,WeatherDisplay:10.37,2013-01-13 07:14:00,
2013-01-12 23:19:00,12.1,6.8,30.49,North,360,3.5,3.5,79,0.00,CLR,,0.00,0.0,WeatherDisplay:10.37,2013-01-13 07:19:00,
2013-01-12 23:24:00,12.0,6.7,30.48,North,360,6.0,6.0,79,0.00,CLR,,0.00,0.0,WeatherDisplay:10.37,2013-01-13 07:24:00,
2013-01-12 23:29:00,12.0,6.7,30.48,North,360,4.0,4.0,79,0.00,CLR,,0.00,0.0,WeatherDisplay:10.37,2013-01-13 07:29:00,
2013-01-12 23:34:00,12.0,6.7,30.48,North,360,3.5,3.5,79,0.00,CLR,,0.00,0.0,WeatherDisplay:10.37,2013-01-13 07:34:00,
2013-01-12 23:39:00,12.0,6.7,30.48,North,360,4.0,4.0,79,0.00,CLR,,0.00,0.0,WeatherDisplay:10.37,2013-01-13 07:39:00,
2013-01-12 23:44:00,11.9,6.6,30.48,North,360,3.5,3.5,79,0.00,CLR,,0.00,0.0,WeatherDisplay:10.37,2013-01-13 07:44:00,
2013-01-12 23:49:00,11.9,6.4,30.47,North,360,6.0,6.0,78,0.00,CLR,,0.00,0.0,WeatherDisplay:10.37,2013-01-13 07:49:00,
2013-01-12 23:54:00,11.8,6.3,30.47,North,360,5.8,5.8,78,0.00,CLR,,0.00,0.0,WeatherDisplay:10.37,2013-01-13 07:54:00,
2013-01-12 23:59:00,11.8,6.3,30.47,North,360,9.2,9.2,78,0.00,CLR,,0.00,0.0,WeatherDisplay:10.37,2013-01-13 07:59:00,